sensor_id;sensor_type;location;lat;lon;timestamp;temperature;humidity
17296;DHT22;8766;51.480;6.872;2023-03-12T00:01:37;5.00;70.20
17296;DHT22;8766;51.480;6.872;2023-03-12T00:04:05;5.00;70.20
17296;DHT22;8766;51.480;6.872;2023-03-12T00:06:33;5.00;70.30
17296;DHT22;8766;51.480;6.872;2023-03-12T00:09:00;5.00;70.20
17296;DHT22;8766;51.480;6.872;2023-03-12T00:11:28;4.90;70.20
17296;DHT22;8766;51.480;6.872;2023-03-12T00:13:56;4.90;70.40
17296;DHT22;8766;51.480;6.872;2023-03-12T00:16:25;4.90;70.40
17296;DHT22;8766;51.480;6.872;2023-03-12T00:18:53;4.90;70.40
17296;DHT22;8766;51.480;6.872;2023-03-12T00:21:21;4.90;70.40
17296;DHT22;8766;51.480;6.872;2023-03-12T00:23:50;4.90;70.30
17296;DHT22;8766;51.480;6.872;2023-03-12T00:26:19;4.90;70.20
17296;DHT22;8766;51.480;6.872;2023-03-12T00:28:47;4.90;70.20
17296;DHT22;8766;51.480;6.872;2023-03-12T00:31:16;5.00;70.20
17296;DHT22;8766;51.480;6.872;2023-03-12T00:33:43;5.00;70.10
17296;DHT22;8766;51.480;6.872;2023-03-12T00:36:11;5.00;70.00
17296;DHT22;8766;51.480;6.872;2023-03-12T00:38:38;5.00;70.60
17296;DHT22;8766;51.480;6.872;2023-03-12T00:41:06;5.00;69.90
17296;DHT22;8766;51.480;6.872;2023-03-12T00:43:33;5.00;69.90
17296;DHT22;8766;51.480;6.872;2023-03-12T00:46:00;5.00;69.90
17296;DHT22;8766;51.480;6.872;2023-03-12T00:48:27;5.00;69.90
17296;DHT22;8766;51.480;6.872;2023-03-12T00:50:54;5.00;69.90
17296;DHT22;8766;51.480;6.872;2023-03-12T00:53:21;5.00;69.90
17296;DHT22;8766;51.480;6.872;2023-03-12T00:55:48;5.00;69.90
17296;DHT22;8766;51.480;6.872;2023-03-12T00:58:16;5.00;69.90
17296;DHT22;8766;51.480;6.872;2023-03-12T01:00:43;5.00;69.80
17296;DHT22;8766;51.480;6.872;2023-03-12T01:03:10;5.00;69.80
17296;DHT22;8766;51.480;6.872;2023-03-12T01:05:37;5.00;69.80
17296;DHT22;8766;51.480;6.872;2023-03-12T01:08:05;5.00;69.80
17296;DHT22;8766;51.480;6.872;2023-03-12T01:10:33;5.00;69.70
17296;DHT22;8766;51.480;6.872;2023-03-12T01:13:00;5.00;69.70
17296;DHT22;8766;51.480;6.872;2023-03-12T01:15:28;5.00;69.60
17296;DHT22;8766;51.480;6.872;2023-03-12T01:17:55;5.00;69.70
17296;DHT22;8766;51.480;6.872;2023-03-12T01:20:22;5.00;69.80
17296;DHT22;8766;51.480;6.872;2023-03-12T01:22:49;4.90;69.80
17296;DHT22;8766;51.480;6.872;2023-03-12T01:25:16;4.90;69.80
17296;DHT22;8766;51.480;6.872;2023-03-12T01:27:43;4.90;69.80
17296;DHT22;8766;51.480;6.872;2023-03-12T01:30:11;4.90;69.80
17296;DHT22;8766;51.480;6.872;2023-03-12T01:32:39;5.00;69.70
17296;DHT22;8766;51.480;6.872;2023-03-12T01:35:07;5.00;69.70
17296;DHT22;8766;51.480;6.872;2023-03-12T01:37:34;5.00;69.50
17296;DHT22;8766;51.480;6.872;2023-03-12T01:40:01;5.10;69.50
17296;DHT22;8766;51.480;6.872;2023-03-12T01:42:29;5.10;69.40
17296;DHT22;8766;51.480;6.872;2023-03-12T01:44:58;5.10;69.40
17296;DHT22;8766;51.480;6.872;2023-03-12T01:47:26;5.10;69.30
17296;DHT22;8766;51.480;6.872;2023-03-12T01:49:59;5.10;69.20
17296;DHT22;8766;51.480;6.872;2023-03-12T01:52:28;5.10;69.20
17296;DHT22;8766;51.480;6.872;2023-03-12T01:54:58;5.10;69.20
17296;DHT22;8766;51.480;6.872;2023-03-12T01:57:30;5.10;69.80
17296;DHT22;8766;51.480;6.872;2023-03-12T02:00:03;5.10;69.10
17296;DHT22;8766;51.480;6.872;2023-03-12T02:02:32;5.20;69.10
17296;DHT22;8766;51.480;6.872;2023-03-12T02:05:08;5.20;69.10
17296;DHT22;8766;51.480;6.872;2023-03-12T02:07:37;5.20;69.10
17296;DHT22;8766;51.480;6.872;2023-03-12T02:10:04;5.20;69.10
17296;DHT22;8766;51.480;6.872;2023-03-12T02:12:31;5.20;69.10
17296;DHT22;8766;51.480;6.872;2023-03-12T02:14:58;5.20;69.10
17296;DHT22;8766;51.480;6.872;2023-03-12T02:17:25;5.10;69.00
17296;DHT22;8766;51.480;6.872;2023-03-12T02:19:59;5.10;69.00
17296;DHT22;8766;51.480;6.872;2023-03-12T02:22:34;5.10;69.00
17296;DHT22;8766;51.480;6.872;2023-03-12T02:25:14;5.10;69.00
17296;DHT22;8766;51.480;6.872;2023-03-12T02:27:41;5.10;69.00
17296;DHT22;8766;51.480;6.872;2023-03-12T02:30:10;5.10;68.90
17296;DHT22;8766;51.480;6.872;2023-03-12T02:32:40;5.10;69.00
17296;DHT22;8766;51.480;6.872;2023-03-12T02:35:08;5.10;69.00
17296;DHT22;8766;51.480;6.872;2023-03-12T02:37:45;5.10;68.90
17296;DHT22;8766;51.480;6.872;2023-03-12T02:40:17;5.10;69.00
17296;DHT22;8766;51.480;6.872;2023-03-12T02:42:44;5.10;69.00
17296;DHT22;8766;51.480;6.872;2023-03-12T02:45:11;5.10;68.90
17296;DHT22;8766;51.480;6.872;2023-03-12T02:47:38;5.10;68.90
17296;DHT22;8766;51.480;6.872;2023-03-12T02:50:06;5.10;68.90
17296;DHT22;8766;51.480;6.872;2023-03-12T02:52:33;5.10;68.90
17296;DHT22;8766;51.480;6.872;2023-03-12T02:55:02;5.10;68.90
17296;DHT22;8766;51.480;6.872;2023-03-12T02:57:31;5.10;68.90
17296;DHT22;8766;51.480;6.872;2023-03-12T02:59:58;5.10;68.90
17296;DHT22;8766;51.480;6.872;2023-03-12T03:02:25;5.10;68.90
17296;DHT22;8766;51.480;6.872;2023-03-12T03:04:51;5.10;68.90
17296;DHT22;8766;51.480;6.872;2023-03-12T03:07:18;5.10;68.90
17296;DHT22;8766;51.480;6.872;2023-03-12T03:09:45;5.10;68.90
17296;DHT22;8766;51.480;6.872;2023-03-12T03:12:12;5.00;68.90
17296;DHT22;8766;51.480;6.872;2023-03-12T03:14:40;5.00;69.00
17296;DHT22;8766;51.480;6.872;2023-03-12T03:17:07;5.00;69.20
17296;DHT22;8766;51.480;6.872;2023-03-12T03:19:34;4.90;69.30
17296;DHT22;8766;51.480;6.872;2023-03-12T03:22:01;4.90;69.20
17296;DHT22;8766;51.480;6.872;2023-03-12T03:24:28;4.90;69.20
17296;DHT22;8766;51.480;6.872;2023-03-12T03:26:55;4.90;69.20
17296;DHT22;8766;51.480;6.872;2023-03-12T03:29:21;5.00;69.10
17296;DHT22;8766;51.480;6.872;2023-03-12T03:31:51;5.00;69.10
17296;DHT22;8766;51.480;6.872;2023-03-12T03:34:18;5.00;69.00
17296;DHT22;8766;51.480;6.872;2023-03-12T03:36:44;5.00;69.00
17296;DHT22;8766;51.480;6.872;2023-03-12T03:39:12;5.00;68.90
17296;DHT22;8766;51.480;6.872;2023-03-12T03:41:39;5.00;68.80
17296;DHT22;8766;51.480;6.872;2023-03-12T03:44:06;5.00;68.80
17296;DHT22;8766;51.480;6.872;2023-03-12T03:46:33;5.00;68.80
17296;DHT22;8766;51.480;6.872;2023-03-12T03:49:02;5.00;68.80
17296;DHT22;8766;51.480;6.872;2023-03-12T03:51:29;5.00;68.90
17296;DHT22;8766;51.480;6.872;2023-03-12T03:53:57;5.00;68.80
17296;DHT22;8766;51.480;6.872;2023-03-12T03:56:25;5.00;68.80
17296;DHT22;8766;51.480;6.872;2023-03-12T03:58:52;5.10;68.80
17296;DHT22;8766;51.480;6.872;2023-03-12T04:01:19;5.10;68.80
17296;DHT22;8766;51.480;6.872;2023-03-12T04:03:46;5.10;68.70
17296;DHT22;8766;51.480;6.872;2023-03-12T04:06:14;5.10;68.70
17296;DHT22;8766;51.480;6.872;2023-03-12T04:08:41;5.10;68.60
17296;DHT22;8766;51.480;6.872;2023-03-12T04:11:10;5.10;68.50
17296;DHT22;8766;51.480;6.872;2023-03-12T04:13:37;5.20;68.60
17296;DHT22;8766;51.480;6.872;2023-03-12T04:16:04;5.20;68.60
17296;DHT22;8766;51.480;6.872;2023-03-12T04:18:31;5.20;68.50
17296;DHT22;8766;51.480;6.872;2023-03-12T04:21:00;5.20;68.50
17296;DHT22;8766;51.480;6.872;2023-03-12T04:23:29;5.20;68.40
17296;DHT22;8766;51.480;6.872;2023-03-12T04:25:55;5.20;68.40
17296;DHT22;8766;51.480;6.872;2023-03-12T04:28:22;5.20;68.40
17296;DHT22;8766;51.480;6.872;2023-03-12T04:30:53;5.20;68.30
17296;DHT22;8766;51.480;6.872;2023-03-12T04:33:20;5.20;68.30
17296;DHT22;8766;51.480;6.872;2023-03-12T04:35:50;5.30;68.40
17296;DHT22;8766;51.480;6.872;2023-03-12T04:38:17;5.30;68.40
17296;DHT22;8766;51.480;6.872;2023-03-12T04:40:45;5.30;68.30
17296;DHT22;8766;51.480;6.872;2023-03-12T04:43:12;5.30;68.30
17296;DHT22;8766;51.480;6.872;2023-03-12T04:45:39;5.30;68.40
17296;DHT22;8766;51.480;6.872;2023-03-12T04:48:07;5.20;68.30
17296;DHT22;8766;51.480;6.872;2023-03-12T04:50:34;5.20;68.30
17296;DHT22;8766;51.480;6.872;2023-03-12T04:53:00;5.20;68.30
17296;DHT22;8766;51.480;6.872;2023-03-12T04:55:27;5.20;68.20
17296;DHT22;8766;51.480;6.872;2023-03-12T04:57:56;5.30;68.20
17296;DHT22;8766;51.480;6.872;2023-03-12T05:00:23;5.30;68.20
17296;DHT22;8766;51.480;6.872;2023-03-12T05:02:51;5.30;68.20
17296;DHT22;8766;51.480;6.872;2023-03-12T05:05:19;5.30;68.20
17296;DHT22;8766;51.480;6.872;2023-03-12T05:07:46;5.30;68.10
17296;DHT22;8766;51.480;6.872;2023-03-12T05:12:40;5.30;68.10
17296;DHT22;8766;51.480;6.872;2023-03-12T05:15:09;5.30;68.10
17296;DHT22;8766;51.480;6.872;2023-03-12T05:17:36;5.30;68.70
17296;DHT22;8766;51.480;6.872;2023-03-12T05:20:03;5.30;68.00
17296;DHT22;8766;51.480;6.872;2023-03-12T05:22:31;5.30;68.10
17296;DHT22;8766;51.480;6.872;2023-03-12T05:24:57;5.30;68.00
17296;DHT22;8766;51.480;6.872;2023-03-12T05:27:24;5.40;68.00
17296;DHT22;8766;51.480;6.872;2023-03-12T05:29:52;5.40;68.00
17296;DHT22;8766;51.480;6.872;2023-03-12T05:32:20;5.40;68.00
17296;DHT22;8766;51.480;6.872;2023-03-12T05:34:47;5.40;68.00
17296;DHT22;8766;51.480;6.872;2023-03-12T05:37:15;5.40;67.90
17296;DHT22;8766;51.480;6.872;2023-03-12T05:39:41;5.40;67.90
17296;DHT22;8766;51.480;6.872;2023-03-12T05:42:11;5.40;67.90
17296;DHT22;8766;51.480;6.872;2023-03-12T05:44:38;5.40;67.90
17296;DHT22;8766;51.480;6.872;2023-03-12T05:47:06;5.40;67.90
17296;DHT22;8766;51.480;6.872;2023-03-12T05:49:34;5.40;67.90
17296;DHT22;8766;51.480;6.872;2023-03-12T05:52:01;5.40;67.90
17296;DHT22;8766;51.480;6.872;2023-03-12T05:54:28;5.40;67.90
17296;DHT22;8766;51.480;6.872;2023-03-12T05:56:54;5.40;68.00
17296;DHT22;8766;51.480;6.872;2023-03-12T05:59:22;5.40;68.00
17296;DHT22;8766;51.480;6.872;2023-03-12T06:01:49;5.40;67.90
17296;DHT22;8766;51.480;6.872;2023-03-12T06:04:16;5.40;67.90
17296;DHT22;8766;51.480;6.872;2023-03-12T06:06:44;5.40;67.90
17296;DHT22;8766;51.480;6.872;2023-03-12T06:09:11;5.40;68.00
17296;DHT22;8766;51.480;6.872;2023-03-12T06:11:38;5.40;68.00
17296;DHT22;8766;51.480;6.872;2023-03-12T06:14:04;5.40;68.00
17296;DHT22;8766;51.480;6.872;2023-03-12T06:16:31;5.30;68.00
17296;DHT22;8766;51.480;6.872;2023-03-12T06:19:00;5.30;68.00
17296;DHT22;8766;51.480;6.872;2023-03-12T06:21:29;5.40;68.10
17296;DHT22;8766;51.480;6.872;2023-03-12T06:23:57;5.40;68.00
17296;DHT22;8766;51.480;6.872;2023-03-12T06:26:25;5.40;68.00
17296;DHT22;8766;51.480;6.872;2023-03-12T06:28:53;5.40;67.90
17296;DHT22;8766;51.480;6.872;2023-03-12T06:31:21;5.40;67.90
17296;DHT22;8766;51.480;6.872;2023-03-12T06:33:48;5.40;67.90
17296;DHT22;8766;51.480;6.872;2023-03-12T06:36:15;5.50;67.90
17296;DHT22;8766;51.480;6.872;2023-03-12T06:38:41;5.50;67.90
17296;DHT22;8766;51.480;6.872;2023-03-12T06:41:12;5.50;67.80
17296;DHT22;8766;51.480;6.872;2023-03-12T06:43:40;5.50;67.80
17296;DHT22;8766;51.480;6.872;2023-03-12T06:46:09;5.50;67.70
17296;DHT22;8766;51.480;6.872;2023-03-12T06:48:38;5.50;67.70
17296;DHT22;8766;51.480;6.872;2023-03-12T06:51:06;5.50;67.70
17296;DHT22;8766;51.480;6.872;2023-03-12T06:53:34;5.50;68.40
17296;DHT22;8766;51.480;6.872;2023-03-12T06:56:02;5.50;67.80
17296;DHT22;8766;51.480;6.872;2023-03-12T06:58:30;5.50;67.90
17296;DHT22;8766;51.480;6.872;2023-03-12T07:00:57;5.50;67.90
17296;DHT22;8766;51.480;6.872;2023-03-12T07:03:24;5.50;67.90
17296;DHT22;8766;51.480;6.872;2023-03-12T07:05:51;5.50;67.80
17296;DHT22;8766;51.480;6.872;2023-03-12T07:08:21;5.50;67.90
17296;DHT22;8766;51.480;6.872;2023-03-12T07:10:48;5.50;67.80
17296;DHT22;8766;51.480;6.872;2023-03-12T07:13:15;5.50;67.90
17296;DHT22;8766;51.480;6.872;2023-03-12T07:15:43;5.50;67.90
17296;DHT22;8766;51.480;6.872;2023-03-12T07:18:11;5.50;68.00
17296;DHT22;8766;51.480;6.872;2023-03-12T07:20:40;5.50;68.00
17296;DHT22;8766;51.480;6.872;2023-03-12T07:23:07;5.50;68.00
17296;DHT22;8766;51.480;6.872;2023-03-12T07:25:54;5.50;68.00
17296;DHT22;8766;51.480;6.872;2023-03-12T07:28:21;5.50;68.00
17296;DHT22;8766;51.480;6.872;2023-03-12T07:30:51;5.50;68.00
17296;DHT22;8766;51.480;6.872;2023-03-12T07:33:22;5.60;68.00
17296;DHT22;8766;51.480;6.872;2023-03-12T07:36:29;5.60;68.00
17296;DHT22;8766;51.480;6.872;2023-03-12T07:38:56;5.70;68.00
17296;DHT22;8766;51.480;6.872;2023-03-12T07:41:23;5.70;67.90
17296;DHT22;8766;51.480;6.872;2023-03-12T07:43:50;5.70;67.80
17296;DHT22;8766;51.480;6.872;2023-03-12T07:46:18;5.70;67.80
17296;DHT22;8766;51.480;6.872;2023-03-12T07:48:45;5.70;67.80
17296;DHT22;8766;51.480;6.872;2023-03-12T07:51:12;5.70;67.70
17296;DHT22;8766;51.480;6.872;2023-03-12T07:53:39;5.60;67.70
17296;DHT22;8766;51.480;6.872;2023-03-12T07:56:13;5.70;67.80
17296;DHT22;8766;51.480;6.872;2023-03-12T07:59:03;5.80;67.90
17296;DHT22;8766;51.480;6.872;2023-03-12T08:01:32;5.70;67.80
17296;DHT22;8766;51.480;6.872;2023-03-12T08:04:00;5.80;68.50
17296;DHT22;8766;51.480;6.872;2023-03-12T08:06:27;5.80;67.80
17296;DHT22;8766;51.480;6.872;2023-03-12T08:08:54;5.90;67.80
17296;DHT22;8766;51.480;6.872;2023-03-12T08:11:21;5.90;67.70
17296;DHT22;8766;51.480;6.872;2023-03-12T08:13:48;5.90;67.60
17296;DHT22;8766;51.480;6.872;2023-03-12T08:16:15;5.90;67.60
17296;DHT22;8766;51.480;6.872;2023-03-12T08:18:44;6.00;67.60
17296;DHT22;8766;51.480;6.872;2023-03-12T08:21:11;6.00;67.70
17296;DHT22;8766;51.480;6.872;2023-03-12T08:23:39;6.00;67.70
17296;DHT22;8766;51.480;6.872;2023-03-12T08:26:06;6.00;67.60
17296;DHT22;8766;51.480;6.872;2023-03-12T08:28:33;6.10;67.50
17296;DHT22;8766;51.480;6.872;2023-03-12T08:31:00;6.20;67.50
17296;DHT22;8766;51.480;6.872;2023-03-12T08:33:27;6.20;67.40
17296;DHT22;8766;51.480;6.872;2023-03-12T08:35:55;6.20;67.40
17296;DHT22;8766;51.480;6.872;2023-03-12T08:38:22;6.30;67.40
17296;DHT22;8766;51.480;6.872;2023-03-12T08:40:54;6.30;67.20
17296;DHT22;8766;51.480;6.872;2023-03-12T08:43:22;6.40;67.10
17296;DHT22;8766;51.480;6.872;2023-03-12T08:45:55;6.50;67.00
17296;DHT22;8766;51.480;6.872;2023-03-12T08:48:22;6.50;66.90
17296;DHT22;8766;51.480;6.872;2023-03-12T08:50:49;6.60;66.80
17296;DHT22;8766;51.480;6.872;2023-03-12T08:53:18;6.60;67.40
17296;DHT22;8766;51.480;6.872;2023-03-12T08:55:45;6.70;66.80
17296;DHT22;8766;51.480;6.872;2023-03-12T08:58:12;6.70;66.70
17296;DHT22;8766;51.480;6.872;2023-03-12T09:00:39;6.70;66.70
17296;DHT22;8766;51.480;6.872;2023-03-12T09:03:06;6.70;66.70
17296;DHT22;8766;51.480;6.872;2023-03-12T09:05:33;6.70;66.70
17296;DHT22;8766;51.480;6.872;2023-03-12T09:08:00;6.70;66.80
17296;DHT22;8766;51.480;6.872;2023-03-12T09:10:28;6.70;66.90
17296;DHT22;8766;51.480;6.872;2023-03-12T09:12:55;6.70;67.00
17296;DHT22;8766;51.480;6.872;2023-03-12T09:15:22;6.60;67.10
17296;DHT22;8766;51.480;6.872;2023-03-12T09:17:49;6.60;67.10
17296;DHT22;8766;51.480;6.872;2023-03-12T09:20:16;6.60;67.30
17296;DHT22;8766;51.480;6.872;2023-03-12T09:22:43;6.60;67.40
17296;DHT22;8766;51.480;6.872;2023-03-12T09:25:11;6.60;67.50
17296;DHT22;8766;51.480;6.872;2023-03-12T09:27:41;6.60;67.50
17296;DHT22;8766;51.480;6.872;2023-03-12T09:30:11;6.60;67.40
17296;DHT22;8766;51.480;6.872;2023-03-12T09:32:38;6.70;67.40
17296;DHT22;8766;51.480;6.872;2023-03-12T09:35:06;6.60;67.30
17296;DHT22;8766;51.480;6.872;2023-03-12T09:37:34;6.60;67.40
17296;DHT22;8766;51.480;6.872;2023-03-12T09:43:27;6.60;67.50
17296;DHT22;8766;51.480;6.872;2023-03-12T09:45:57;6.60;67.60
17296;DHT22;8766;51.480;6.872;2023-03-12T09:48:30;6.60;67.70
17296;DHT22;8766;51.480;6.872;2023-03-12T09:51:01;6.60;67.80
17296;DHT22;8766;51.480;6.872;2023-03-12T09:53:33;6.60;67.80
17296;DHT22;8766;51.480;6.872;2023-03-12T09:56:08;6.60;67.70
17296;DHT22;8766;51.480;6.872;2023-03-12T09:58:39;6.60;67.70
17296;DHT22;8766;51.480;6.872;2023-03-12T10:01:20;6.60;67.70
17296;DHT22;8766;51.480;6.872;2023-03-12T10:06:49;6.70;67.90
17296;DHT22;8766;51.480;6.872;2023-03-12T10:09:28;6.70;67.90
17296;DHT22;8766;51.480;6.872;2023-03-12T10:12:22;6.70;67.90
17296;DHT22;8766;51.480;6.872;2023-03-12T10:15:16;6.70;67.80
17296;DHT22;8766;51.480;6.872;2023-03-12T10:17:56;6.80;67.80
17296;DHT22;8766;51.480;6.872;2023-03-12T10:20:45;6.80;67.70
17296;DHT22;8766;51.480;6.872;2023-03-12T10:23:21;6.90;67.70
17296;DHT22;8766;51.480;6.872;2023-03-12T10:25:57;6.90;67.60
17296;DHT22;8766;51.480;6.872;2023-03-12T10:28:30;6.90;67.50
17296;DHT22;8766;51.480;6.872;2023-03-12T10:31:02;7.00;67.60
17296;DHT22;8766;51.480;6.872;2023-03-12T10:33:38;7.00;67.60
17296;DHT22;8766;51.480;6.872;2023-03-12T10:36:14;7.00;67.60
17296;DHT22;8766;51.480;6.872;2023-03-12T10:38:41;7.00;67.60
17296;DHT22;8766;51.480;6.872;2023-03-12T10:41:17;7.00;67.60
17296;DHT22;8766;51.480;6.872;2023-03-12T10:43:44;7.00;67.60
17296;DHT22;8766;51.480;6.872;2023-03-12T10:46:41;7.10;67.60
17296;DHT22;8766;51.480;6.872;2023-03-12T10:49:22;7.10;67.60
17296;DHT22;8766;51.480;6.872;2023-03-12T10:51:55;7.10;67.60
17296;DHT22;8766;51.480;6.872;2023-03-12T10:54:27;7.20;67.60
17296;DHT22;8766;51.480;6.872;2023-03-12T10:56:54;7.20;67.70
17296;DHT22;8766;51.480;6.872;2023-03-12T10:59:24;7.20;67.60
17296;DHT22;8766;51.480;6.872;2023-03-12T11:01:54;7.20;67.60
17296;DHT22;8766;51.480;6.872;2023-03-12T11:04:23;7.30;67.60
17296;DHT22;8766;51.480;6.872;2023-03-12T11:07:18;7.30;67.60
17296;DHT22;8766;51.480;6.872;2023-03-12T11:09:45;7.40;67.60
17296;DHT22;8766;51.480;6.872;2023-03-12T11:12:30;7.40;67.50
17296;DHT22;8766;51.480;6.872;2023-03-12T11:14:57;7.40;67.40
17296;DHT22;8766;51.480;6.872;2023-03-12T11:17:27;7.40;67.40
17296;DHT22;8766;51.480;6.872;2023-03-12T11:19:55;7.40;67.50
17296;DHT22;8766;51.480;6.872;2023-03-12T11:22:32;7.50;67.60
17296;DHT22;8766;51.480;6.872;2023-03-12T11:25:01;7.50;67.60
17296;DHT22;8766;51.480;6.872;2023-03-12T11:27:37;7.60;67.50
17296;DHT22;8766;51.480;6.872;2023-03-12T11:30:11;7.60;67.50
17296;DHT22;8766;51.480;6.872;2023-03-12T11:32:44;7.70;67.30
17296;DHT22;8766;51.480;6.872;2023-03-12T11:35:16;7.80;67.10
17296;DHT22;8766;51.480;6.872;2023-03-12T11:37:52;7.90;67.00
17296;DHT22;8766;51.480;6.872;2023-03-12T11:40:44;8.00;66.90
17296;DHT22;8766;51.480;6.872;2023-03-12T11:43:22;8.00;66.90
17296;DHT22;8766;51.480;6.872;2023-03-12T11:46:06;8.00;66.80
17296;DHT22;8766;51.480;6.872;2023-03-12T11:48:45;8.10;66.80
17296;DHT22;8766;51.480;6.872;2023-03-12T11:51:25;8.20;66.80
17296;DHT22;8766;51.480;6.872;2023-03-12T11:54:15;8.20;66.60
17296;DHT22;8766;51.480;6.872;2023-03-12T11:56:48;8.30;66.60
17296;DHT22;8766;51.480;6.872;2023-03-12T12:02:24;8.40;66.50
17296;DHT22;8766;51.480;6.872;2023-03-12T12:05:20;8.50;66.50
17296;DHT22;8766;51.480;6.872;2023-03-12T12:07:57;8.50;66.40
17296;DHT22;8766;51.480;6.872;2023-03-12T12:10:32;8.60;66.40
17296;DHT22;8766;51.480;6.872;2023-03-12T12:13:07;8.60;66.30
17296;DHT22;8766;51.480;6.872;2023-03-12T12:15:40;8.60;66.40
17296;DHT22;8766;51.480;6.872;2023-03-12T12:18:26;8.70;66.40
17296;DHT22;8766;51.480;6.872;2023-03-12T12:21:02;8.70;66.50
17296;DHT22;8766;51.480;6.872;2023-03-12T12:23:39;8.80;66.40
17296;DHT22;8766;51.480;6.872;2023-03-12T12:26:18;8.90;66.20
17296;DHT22;8766;51.480;6.872;2023-03-12T12:29:27;9.00;66.10
17296;DHT22;8766;51.480;6.872;2023-03-12T12:31:58;9.00;66.00
17296;DHT22;8766;51.480;6.872;2023-03-12T12:34:55;9.00;66.00
17296;DHT22;8766;51.480;6.872;2023-03-12T12:37:42;9.00;66.20
17296;DHT22;8766;51.480;6.872;2023-03-12T12:40:17;9.00;66.20
17296;DHT22;8766;51.480;6.872;2023-03-12T12:42:55;9.00;66.30
17296;DHT22;8766;51.480;6.872;2023-03-12T12:45:25;9.10;66.40
17296;DHT22;8766;51.480;6.872;2023-03-12T12:47:56;9.10;66.30
17296;DHT22;8766;51.480;6.872;2023-03-12T12:50:28;9.20;66.20
17296;DHT22;8766;51.480;6.872;2023-03-12T12:53:09;9.30;66.10
17296;DHT22;8766;51.480;6.872;2023-03-12T12:55:44;9.40;66.00
17296;DHT22;8766;51.480;6.872;2023-03-12T12:58:18;9.50;65.90
17296;DHT22;8766;51.480;6.872;2023-03-12T13:00:48;9.60;65.70
17296;DHT22;8766;51.480;6.872;2023-03-12T13:03:18;9.80;65.30
17296;DHT22;8766;51.480;6.872;2023-03-12T13:05:55;10.10;64.90
17296;DHT22;8766;51.480;6.872;2023-03-12T13:08:36;10.20;64.60
17296;DHT22;8766;51.480;6.872;2023-03-12T13:11:28;10.30;64.40
17296;DHT22;8766;51.480;6.872;2023-03-12T13:14:35;10.40;64.20
17296;DHT22;8766;51.480;6.872;2023-03-12T13:17:14;10.40;64.20
17296;DHT22;8766;51.480;6.872;2023-03-12T13:19:46;10.40;64.40
17296;DHT22;8766;51.480;6.872;2023-03-12T13:22:23;10.40;64.50
17296;DHT22;8766;51.480;6.872;2023-03-12T13:24:57;10.40;64.60
17296;DHT22;8766;51.480;6.872;2023-03-12T13:27:30;10.50;64.60
17296;DHT22;8766;51.480;6.872;2023-03-12T13:29:57;10.50;64.60
17296;DHT22;8766;51.480;6.872;2023-03-12T13:32:37;10.60;64.60
17296;DHT22;8766;51.480;6.872;2023-03-12T13:35:32;10.60;64.60
17296;DHT22;8766;51.480;6.872;2023-03-12T13:38:17;10.70;64.50
17296;DHT22;8766;51.480;6.872;2023-03-12T13:40:58;10.80;64.50
17296;DHT22;8766;51.480;6.872;2023-03-12T13:43:52;10.80;64.50
17296;DHT22;8766;51.480;6.872;2023-03-12T13:46:37;10.90;64.50
17296;DHT22;8766;51.480;6.872;2023-03-12T13:49:10;10.90;64.40
17296;DHT22;8766;51.480;6.872;2023-03-12T13:51:52;11.00;64.40
17296;DHT22;8766;51.480;6.872;2023-03-12T13:54:23;11.10;64.30
17296;DHT22;8766;51.480;6.872;2023-03-12T13:56:59;11.10;64.20
17296;DHT22;8766;51.480;6.872;2023-03-12T13:59:27;11.20;64.20
17296;DHT22;8766;51.480;6.872;2023-03-12T14:05:51;11.30;64.20
17296;DHT22;8766;51.480;6.872;2023-03-12T14:11:37;11.30;64.10
17296;DHT22;8766;51.480;6.872;2023-03-12T14:14:46;11.30;64.30
17296;DHT22;8766;51.480;6.872;2023-03-12T14:17:16;11.20;64.40
17296;DHT22;8766;51.480;6.872;2023-03-12T14:23:27;11.20;64.70
17296;DHT22;8766;51.480;6.872;2023-03-12T14:28:41;11.20;64.80
17296;DHT22;8766;51.480;6.872;2023-03-12T14:31:12;11.20;65.00
17296;DHT22;8766;51.480;6.872;2023-03-12T14:33:48;11.20;65.10
17296;DHT22;8766;51.480;6.872;2023-03-12T14:36:17;11.20;65.20
17296;DHT22;8766;51.480;6.872;2023-03-12T14:38:46;11.20;65.30
17296;DHT22;8766;51.480;6.872;2023-03-12T14:41:18;11.10;65.40
17296;DHT22;8766;51.480;6.872;2023-03-12T14:43:49;11.10;65.50
17296;DHT22;8766;51.480;6.872;2023-03-12T14:46:19;11.10;65.60
17296;DHT22;8766;51.480;6.872;2023-03-12T14:48:47;11.00;65.70
17296;DHT22;8766;51.480;6.872;2023-03-12T14:51:20;11.20;65.90
17296;DHT22;8766;51.480;6.872;2023-03-12T14:53:48;11.00;65.90
17296;DHT22;8766;51.480;6.872;2023-03-12T14:56:22;11.00;66.00
17296;DHT22;8766;51.480;6.872;2023-03-12T14:58:50;11.10;66.00
17296;DHT22;8766;51.480;6.872;2023-03-12T15:01:20;11.10;65.90
17296;DHT22;8766;51.480;6.872;2023-03-12T15:03:50;11.20;65.80
17296;DHT22;8766;51.480;6.872;2023-03-12T15:06:20;11.30;65.70
17296;DHT22;8766;51.480;6.872;2023-03-12T15:08:50;11.40;65.60
17296;DHT22;8766;51.480;6.872;2023-03-12T15:11:20;11.40;65.50
17296;DHT22;8766;51.480;6.872;2023-03-12T15:13:48;11.40;65.50
17296;DHT22;8766;51.480;6.872;2023-03-12T15:16:15;11.40;65.60
17296;DHT22;8766;51.480;6.872;2023-03-12T15:18:44;11.40;65.70
17296;DHT22;8766;51.480;6.872;2023-03-12T15:21:12;11.30;65.80
17296;DHT22;8766;51.480;6.872;2023-03-12T15:23:42;11.30;65.80
17296;DHT22;8766;51.480;6.872;2023-03-12T15:26:15;11.30;65.90
17296;DHT22;8766;51.480;6.872;2023-03-12T15:28:54;11.30;66.00
17296;DHT22;8766;51.480;6.872;2023-03-12T15:31:22;11.30;66.10
17296;DHT22;8766;51.480;6.872;2023-03-12T15:34:00;11.30;66.10
17296;DHT22;8766;51.480;6.872;2023-03-12T15:36:29;11.30;66.20
17296;DHT22;8766;51.480;6.872;2023-03-12T15:38:59;11.20;66.20
17296;DHT22;8766;51.480;6.872;2023-03-12T15:41:30;11.30;66.30
17296;DHT22;8766;51.480;6.872;2023-03-12T15:44:00;11.40;66.50
17296;DHT22;8766;51.480;6.872;2023-03-12T15:46:27;11.20;66.50
17296;DHT22;8766;51.480;6.872;2023-03-12T15:48:56;11.20;66.60
17296;DHT22;8766;51.480;6.872;2023-03-12T15:51:31;11.20;66.70
17296;DHT22;8766;51.480;6.872;2023-03-12T15:54:03;11.20;66.70
17296;DHT22;8766;51.480;6.872;2023-03-12T15:56:32;11.20;66.70
17296;DHT22;8766;51.480;6.872;2023-03-12T15:59:16;11.20;66.70
17296;DHT22;8766;51.480;6.872;2023-03-12T16:01:44;11.10;66.60
17296;DHT22;8766;51.480;6.872;2023-03-12T16:04:11;11.20;66.70
17296;DHT22;8766;51.480;6.872;2023-03-12T16:06:40;11.20;66.70
17296;DHT22;8766;51.480;6.872;2023-03-12T16:09:10;11.20;66.70
17296;DHT22;8766;51.480;6.872;2023-03-12T16:11:38;11.20;66.80
17296;DHT22;8766;51.480;6.872;2023-03-12T16:14:09;11.20;66.70
17296;DHT22;8766;51.480;6.872;2023-03-12T16:16:39;11.20;66.70
17296;DHT22;8766;51.480;6.872;2023-03-12T16:19:10;11.30;66.70
17296;DHT22;8766;51.480;6.872;2023-03-12T16:21:39;11.30;66.70
17296;DHT22;8766;51.480;6.872;2023-03-12T16:24:07;11.20;66.70
17296;DHT22;8766;51.480;6.872;2023-03-12T16:26:35;11.30;66.80
17296;DHT22;8766;51.480;6.872;2023-03-12T16:29:03;11.30;66.80
17296;DHT22;8766;51.480;6.872;2023-03-12T16:31:30;11.20;66.80
17296;DHT22;8766;51.480;6.872;2023-03-12T16:33:57;11.30;66.90
17296;DHT22;8766;51.480;6.872;2023-03-12T16:36:25;11.20;66.90
17296;DHT22;8766;51.480;6.872;2023-03-12T16:38:53;11.20;66.90
17296;DHT22;8766;51.480;6.872;2023-03-12T16:41:20;11.20;67.00
17296;DHT22;8766;51.480;6.872;2023-03-12T16:43:49;11.20;67.00
17296;DHT22;8766;51.480;6.872;2023-03-12T16:46:20;11.30;67.10